createdAt,value
2018-08-19T00:00:32.478Z,21.93
2018-08-19T00:03:35.868Z,21.77
2018-08-19T00:06:39.200Z,21.65
2018-08-19T00:09:43.515Z,21.51
2018-08-19T00:12:48.030Z,21.39
2018-08-19T00:15:52.535Z,21.18
2018-08-19T00:18:55.868Z,20.72
2018-08-19T00:21:59.135Z,20.50
2018-08-19T00:25:02.469Z,20.44
2018-08-19T00:28:08.313Z,20.44
2018-08-19T00:31:11.614Z,20.42
2018-08-19T00:34:17.393Z,20.48
2018-08-19T00:37:21.583Z,20.51
2018-08-19T00:40:25.622Z,20.59
2018-08-19T00:43:29.239Z,20.56
2018-08-19T00:46:33.043Z,20.47
2018-08-19T00:49:36.357Z,20.50
2018-08-19T00:52:39.849Z,20.45
2018-08-19T00:55:48.682Z,20.52
2018-08-19T00:58:53.260Z,20.46
2018-08-19T01:01:56.935Z,20.39
2018-08-19T01:05:01.101Z,20.30
2018-08-19T01:08:04.410Z,20.30
2018-08-19T01:11:29.224Z,20.17
2018-08-19T01:14:32.674Z,20.06
2018-08-19T01:17:41.185Z,20.08
2018-08-19T01:20:44.948Z,20.08
2018-08-19T01:23:48.466Z,19.98
2018-08-19T01:26:53.228Z,19.92
2018-08-19T01:29:56.478Z,19.80
2018-08-19T01:32:59.998Z,19.86
2018-08-19T01:36:03.585Z,19.91
2018-08-19T01:39:10.838Z,19.92
2018-08-19T01:42:14.195Z,19.87
2018-08-19T01:45:17.490Z,19.99
2018-08-19T01:51:46.512Z,19.86
2018-08-19T01:54:49.774Z,19.67
2018-08-19T01:57:53.539Z,19.77
2018-08-19T02:00:56.954Z,19.79
2018-08-19T02:04:00.306Z,19.69
2018-08-19T02:07:03.777Z,19.74
2018-08-19T02:10:08.759Z,19.83
2018-08-19T02:13:12.183Z,19.81
2018-08-19T02:16:17.412Z,19.77
2018-08-19T02:19:20.680Z,19.75
2018-08-19T02:22:24.047Z,19.73
2018-08-19T02:25:32.168Z,19.77
2018-08-19T02:28:36.088Z,19.78
2018-08-19T02:31:39.300Z,19.81
2018-08-19T02:34:45.561Z,19.74
2018-08-19T02:37:49.529Z,19.78
2018-08-19T02:40:54.143Z,19.71
2018-08-19T02:43:58.850Z,19.60
2018-08-19T02:47:02.306Z,19.58
2018-08-19T02:50:10.065Z,19.58
2018-08-19T02:53:13.321Z,19.44
2018-08-19T02:56:19.081Z,19.29
2018-08-19T02:59:22.490Z,19.29
2018-08-19T03:02:30.303Z,19.24
2018-08-19T03:05:33.606Z,19.20
2018-08-19T03:08:43.717Z,19.21
2018-08-19T03:11:52.625Z,19.12
2018-08-19T03:14:56.345Z,19.09
2018-08-19T03:17:59.603Z,19.17
2018-08-19T03:21:02.856Z,19.16
2018-08-19T03:24:06.769Z,19.16
2018-08-19T03:27:10.357Z,19.25
2018-08-19T03:30:16.750Z,19.34
2018-08-19T03:33:20.099Z,19.40
2018-08-19T03:36:23.465Z,19.45
2018-08-19T03:39:27.007Z,19.54
2018-08-19T03:42:30.281Z,19.54
2018-08-19T03:45:33.746Z,19.52
2018-08-19T03:48:37.132Z,19.50
2018-08-19T03:51:40.899Z,19.38
2018-08-19T03:54:47.193Z,19.28
2018-08-19T03:57:50.662Z,19.31
2018-08-19T04:00:54.065Z,19.35
2018-08-19T04:03:57.368Z,19.40
2018-08-19T04:07:00.730Z,19.42
2018-08-19T04:10:04.359Z,19.30
2018-08-19T04:13:24.854Z,19.22
2018-08-19T04:16:28.195Z,19.16
2018-08-19T04:19:31.473Z,19.25
2018-08-19T04:22:34.780Z,19.27
2018-08-19T04:25:38.079Z,19.03
2018-08-19T04:28:42.498Z,18.93
2018-08-19T04:31:46.887Z,18.86
2018-08-19T04:34:50.215Z,18.86
2018-08-19T04:37:53.629Z,18.78
2018-08-19T04:40:57.999Z,18.77
2018-08-19T04:44:01.320Z,18.80
2018-08-19T04:47:19.998Z,18.62
2018-08-19T04:50:23.344Z,18.54
2018-08-19T04:53:26.664Z,18.64
2018-08-19T04:56:30.339Z,18.54
2018-08-19T04:59:33.772Z,18.50
2018-08-19T05:02:37.031Z,18.40
2018-08-19T05:05:40.607Z,18.24
2018-08-19T05:08:43.890Z,18.37
2018-08-19T05:11:48.587Z,18.53
2018-08-19T05:14:52.288Z,18.54
2018-08-19T05:17:55.754Z,18.49
2018-08-19T05:21:04.599Z,18.46
2018-08-19T05:24:07.863Z,18.55
2018-08-19T05:27:11.109Z,18.65
2018-08-19T05:30:14.427Z,18.56
2018-08-19T05:33:17.730Z,18.52
2018-08-19T05:36:21.207Z,18.62
2018-08-19T05:39:24.504Z,18.80
2018-08-19T05:42:28.883Z,18.89
2018-08-19T05:45:33.370Z,18.93
2018-08-19T05:48:36.679Z,18.99
2018-08-19T05:51:39.873Z,18.99
2018-08-19T05:54:55.081Z,18.98
2018-08-19T05:57:58.383Z,19.05
2018-08-19T06:01:01.722Z,19.13
2018-08-19T06:04:04.989Z,19.23
2018-08-19T06:07:08.302Z,19.40
2018-08-19T06:10:11.544Z,19.45
2018-08-19T06:13:14.973Z,19.39
2018-08-19T06:16:18.485Z,19.31
2018-08-19T06:19:21.758Z,19.49
2018-08-19T06:22:42.511Z,19.62
2018-08-19T06:25:47.339Z,19.62
2018-08-19T06:28:50.712Z,19.53
2018-08-19T06:31:54.091Z,19.69
2018-08-19T06:34:57.390Z,19.89
2018-08-19T06:38:00.730Z,20.01
2018-08-19T06:41:04.027Z,19.73
2018-08-19T06:44:07.408Z,19.78
2018-08-19T06:47:10.831Z,19.75
2018-08-19T06:50:24.116Z,19.86
2018-08-19T06:53:29.399Z,20.02
2018-08-19T06:56:32.704Z,20.04
2018-08-19T06:59:36.756Z,20.12
2018-08-19T07:02:40.327Z,20.13
2018-08-19T07:05:43.643Z,20.14
2018-08-19T07:08:47.995Z,20.28
2018-08-19T07:12:00.368Z,20.46
2018-08-19T07:15:04.102Z,20.69
2018-08-19T07:18:09.288Z,20.82
2018-08-19T07:21:12.727Z,20.95
2018-08-19T07:24:16.390Z,21.01
2018-08-19T07:27:19.678Z,21.01
2018-08-19T07:30:23.103Z,20.94
2018-08-19T07:33:26.499Z,21.15
2018-08-19T07:36:29.922Z,21.26
2018-08-19T07:39:42.551Z,21.42
2018-08-19T07:42:47.328Z,21.47
2018-08-19T07:45:50.650Z,21.75
2018-08-19T07:48:54.056Z,21.95
2018-08-19T07:51:57.232Z,22.20
2018-08-19T07:55:00.526Z,22.25
2018-08-19T07:58:05.016Z,22.28
2018-08-19T08:01:08.331Z,22.55
2018-08-19T08:04:11.680Z,22.77
2018-08-19T08:07:15.352Z,22.79
2018-08-19T08:10:18.754Z,22.86
2018-08-19T08:13:22.083Z,23.08
2018-08-19T08:16:25.451Z,23.22
2018-08-19T08:19:28.719Z,23.11
2018-08-19T08:22:33.254Z,23.11
2018-08-19T08:25:36.462Z,23.31
2018-08-19T08:28:39.976Z,23.28
2018-08-19T08:31:48.870Z,23.48
2018-08-19T08:34:52.283Z,23.78
2018-08-19T08:37:55.642Z,23.93
2018-08-19T08:40:58.888Z,24.06
2018-08-19T08:44:02.305Z,24.25
2018-08-19T08:47:08.043Z,24.55
2018-08-19T08:50:12.386Z,24.47
2018-08-19T08:53:15.702Z,24.66
2018-08-19T08:56:19.143Z,24.79
2018-08-19T08:59:22.516Z,24.80
2018-08-19T09:02:25.905Z,24.79
2018-08-19T09:05:29.167Z,24.68
2018-08-19T09:08:32.535Z,24.82
2018-08-19T09:11:35.907Z,24.99
2018-08-19T09:14:39.379Z,24.77
2018-08-19T09:17:42.783Z,24.80
2018-08-19T09:20:46.573Z,24.89
2018-08-19T09:23:49.939Z,25.06
2018-08-19T09:26:53.323Z,25.37
2018-08-19T09:29:56.529Z,25.62
2018-08-19T09:33:01.322Z,25.24
2018-08-19T09:36:04.598Z,25.88
2018-08-19T09:39:09.674Z,26.11
2018-08-19T09:42:13.508Z,25.83
2018-08-19T09:45:17.627Z,25.87
2018-08-19T09:48:21.021Z,25.87
2018-08-19T09:51:24.357Z,25.90
2018-08-19T09:54:31.971Z,26.12
2018-08-19T09:57:35.204Z,26.51
2018-08-19T10:00:44.273Z,26.68
2018-08-19T10:03:48.922Z,26.79
2018-08-19T10:06:59.517Z,27.14
2018-08-19T10:10:05.406Z,27.30
2018-08-19T10:13:08.676Z,27.49
2018-08-19T10:16:14.120Z,27.77
2018-08-19T10:19:18.007Z,27.88
2018-08-19T10:22:21.272Z,27.99
2018-08-19T10:25:24.631Z,27.86
2018-08-19T10:28:28.075Z,27.81
2018-08-19T10:31:31.520Z,27.99
2018-08-19T10:34:36.028Z,27.81
2018-08-19T10:37:39.460Z,27.82
2018-08-19T10:40:43.364Z,27.96
2018-08-19T10:43:47.452Z,28.25
2018-08-19T10:46:50.750Z,28.40
2018-08-19T10:49:58.679Z,28.42
2018-08-19T10:53:02.589Z,28.57
2018-08-19T10:56:06.046Z,28.64
2018-08-19T10:59:09.548Z,28.74
2018-08-19T11:02:13.393Z,28.91
2018-08-19T11:05:17.465Z,28.94
2018-08-19T11:08:22.023Z,28.83
2018-08-19T11:11:27.713Z,28.83
2018-08-19T11:14:31.054Z,28.89
2018-08-19T11:17:35.304Z,28.85
2018-08-19T11:20:38.887Z,28.98
2018-08-19T11:23:44.566Z,29.11
2018-08-19T11:26:52.787Z,29.39
2018-08-19T11:29:56.766Z,29.49
2018-08-19T11:33:00.879Z,29.52
2018-08-19T11:36:04.211Z,29.69
2018-08-19T11:39:10.722Z,29.56
2018-08-19T11:42:14.178Z,29.57
2018-08-19T11:45:18.523Z,29.62
2018-08-19T11:48:22.106Z,29.82
2018-08-19T11:51:43.251Z,29.86
2018-08-19T11:54:48.539Z,29.87
2018-08-19T11:57:51.838Z,30.08
2018-08-19T12:01:01.843Z,30.23
2018-08-19T12:04:06.588Z,30.39
2018-08-19T12:07:10.235Z,30.45
2018-08-19T12:10:13.696Z,29.56
2018-08-19T12:13:18.797Z,29.54
2018-08-19T12:16:23.926Z,29.58
2018-08-19T12:19:29.292Z,29.81
2018-08-19T12:22:32.580Z,30.04
2018-08-19T12:25:35.987Z,30.39
2018-08-19T12:28:39.492Z,30.35
2018-08-19T12:31:42.751Z,30.27
2018-08-19T12:34:56.512Z,30.23
2018-08-19T12:37:59.791Z,30.34
2018-08-19T12:41:04.541Z,30.06
2018-08-19T12:44:08.112Z,30.24
2018-08-19T12:47:24.975Z,30.54
2018-08-19T12:50:28.367Z,30.67
2018-08-19T12:53:33.496Z,30.62
2018-08-19T12:56:37.018Z,30.54
2018-08-19T12:59:40.435Z,30.93
2018-08-19T13:02:44.815Z,31.00
2018-08-19T13:06:00.336Z,31.19
2018-08-19T13:09:03.764Z,30.82
2018-08-19T13:12:09.238Z,30.97
2018-08-19T13:15:12.598Z,30.75
2018-08-19T13:18:20.263Z,30.99
2018-08-19T13:21:25.759Z,31.23
2018-08-19T13:24:39.668Z,31.31
2018-08-19T13:27:43.279Z,31.17
2018-08-19T13:30:47.600Z,30.90
2018-08-19T13:33:51.252Z,31.01
2018-08-19T13:36:54.921Z,31.05
2018-08-19T13:39:58.411Z,31.05
2018-08-19T13:43:01.772Z,30.95
2018-08-19T13:46:05.391Z,31.36
2018-08-19T13:49:08.701Z,31.37
2018-08-19T13:52:11.998Z,31.40
2018-08-19T13:55:17.762Z,31.39
2018-08-19T13:58:21.178Z,31.59
2018-08-19T14:01:24.558Z,31.55
2018-08-19T14:04:27.845Z,31.68
2018-08-19T14:07:31.319Z,31.91
2018-08-19T14:10:34.622Z,31.95
2018-08-19T14:13:37.841Z,31.84
2018-08-19T14:16:41.241Z,31.93
2018-08-19T14:19:44.545Z,32.03
2018-08-19T14:22:48.965Z,32.03
2018-08-19T14:25:52.354Z,32.15
2018-08-19T14:28:56.079Z,32.10
2018-08-19T14:32:00.070Z,31.97
2018-08-19T14:35:04.607Z,32.32
2018-08-19T14:38:08.013Z,32.49
2018-08-19T14:41:11.560Z,32.44
2018-08-19T14:44:14.719Z,32.48
2018-08-19T14:47:19.351Z,32.34
2018-08-19T14:50:22.837Z,32.48
2018-08-19T14:53:26.210Z,32.29
2018-08-19T14:56:29.633Z,32.25
2018-08-19T14:59:33.010Z,32.53
2018-08-19T15:02:36.407Z,32.54
2018-08-19T15:05:39.710Z,32.15
2018-08-19T15:08:43.026Z,32.54
2018-08-19T15:11:46.976Z,32.49
2018-08-19T15:14:50.937Z,32.21
2018-08-19T15:18:01.262Z,32.24
2018-08-19T15:21:04.618Z,32.28
2018-08-19T15:24:07.950Z,32.59
2018-08-19T15:27:11.447Z,32.89
2018-08-19T15:30:19.042Z,32.97
2018-08-19T15:33:22.364Z,32.67
2018-08-19T15:36:25.612Z,32.88
2018-08-19T15:39:29.139Z,33.05
2018-08-19T15:42:32.676Z,32.96
2018-08-19T15:45:36.165Z,33.04
2018-08-19T15:48:39.745Z,32.89
2018-08-19T15:51:44.731Z,32.72
2018-08-19T15:54:53.132Z,32.87
2018-08-19T15:57:59.312Z,32.90
2018-08-19T16:01:12.642Z,32.84
2018-08-19T16:04:20.495Z,32.85
2018-08-19T16:07:23.839Z,32.93
2018-08-19T16:10:27.183Z,32.63
2018-08-19T16:13:30.707Z,32.86
2018-08-19T16:16:33.963Z,32.77
2018-08-19T16:19:37.224Z,32.68
2018-08-19T16:22:40.896Z,32.80
2018-08-19T16:25:44.296Z,32.86
2018-08-19T16:28:48.810Z,32.58
2018-08-19T16:31:52.256Z,32.59
2018-08-19T16:34:55.544Z,32.61
2018-08-19T16:37:58.693Z,32.58
2018-08-19T16:41:01.994Z,32.72
2018-08-19T16:44:05.416Z,32.53
2018-08-19T16:47:08.814Z,32.30
2018-08-19T16:50:13.308Z,32.09
2018-08-19T16:53:17.183Z,31.93
2018-08-19T16:56:20.406Z,31.77
2018-08-19T16:59:23.931Z,31.68
2018-08-19T17:02:27.328Z,31.66
2018-08-19T17:05:34.291Z,31.54
2018-08-19T17:08:38.230Z,31.45
2018-08-19T17:11:42.503Z,31.37
2018-08-19T17:14:45.747Z,31.32
2018-08-19T17:17:49.057Z,31.10
2018-08-19T17:20:52.774Z,31.03
2018-08-19T17:23:56.106Z,30.81
2018-08-19T17:27:04.969Z,30.54
2018-08-19T17:30:12.443Z,30.60
2018-08-19T17:33:16.352Z,30.31
2018-08-19T17:36:25.723Z,30.28
2018-08-19T17:39:31.280Z,30.31
2018-08-19T17:42:34.478Z,30.33
2018-08-19T17:45:38.153Z,30.34
2018-08-19T17:48:43.058Z,30.21
2018-08-19T17:51:46.351Z,30.10
2018-08-19T17:54:49.771Z,30.03
2018-08-19T17:57:54.806Z,29.94
2018-08-19T18:00:58.130Z,29.76
2018-08-19T18:04:01.476Z,29.72
2018-08-19T18:07:04.770Z,29.75
2018-08-19T18:10:14.742Z,29.68
2018-08-19T18:13:17.972Z,29.62
2018-08-19T18:16:22.109Z,29.61
2018-08-19T18:19:25.403Z,29.44
2018-08-19T18:22:28.735Z,29.30
2018-08-19T18:25:32.252Z,29.30
2018-08-19T18:28:35.507Z,29.29
2018-08-19T18:31:38.844Z,29.19
2018-08-19T18:34:42.230Z,29.12
2018-08-19T18:37:46.118Z,29.05
2018-08-19T18:40:49.457Z,28.95
2018-08-19T18:43:55.048Z,28.74
2018-08-19T18:46:59.155Z,28.68
2018-08-19T18:50:06.637Z,28.64
2018-08-19T18:53:10.818Z,28.62
2018-08-19T18:56:14.105Z,28.61
2018-08-19T18:59:17.434Z,28.55
2018-08-19T19:02:20.669Z,28.47
2018-08-19T19:05:31.399Z,28.37
2018-08-19T19:08:34.679Z,28.27
2018-08-19T19:11:38.048Z,28.21
2018-08-19T19:14:42.422Z,28.13
2018-08-19T19:17:47.564Z,27.99
2018-08-19T19:20:56.464Z,27.93
2018-08-19T19:24:00.607Z,27.86
2018-08-19T19:27:03.837Z,27.78
2018-08-19T19:30:07.734Z,27.70
2018-08-19T19:33:12.658Z,27.65
2018-08-19T19:36:20.252Z,27.59
2018-08-19T19:39:23.572Z,27.49
2018-08-19T19:42:28.751Z,27.37
2018-08-19T19:45:42.469Z,27.30
2018-08-19T19:48:48.090Z,27.28
2018-08-19T19:51:59.488Z,27.14
2018-08-19T19:55:02.723Z,27.02
2018-08-19T19:58:08.255Z,26.94
2018-08-19T20:01:11.743Z,26.85
2018-08-19T20:04:14.955Z,26.77
2018-08-19T20:07:18.947Z,26.70
2018-08-19T20:10:26.367Z,26.63
2018-08-19T20:13:30.809Z,26.54
2018-08-19T20:16:34.463Z,26.48
2018-08-19T20:19:38.181Z,26.41
2018-08-19T20:22:41.569Z,26.31
2018-08-19T20:25:46.158Z,26.20
2018-08-19T20:28:50.532Z,26.12
2018-08-19T20:31:53.936Z,26.08
2018-08-19T20:34:58.090Z,25.96
2018-08-19T20:38:20.046Z,25.84
2018-08-19T20:41:23.866Z,25.74
2018-08-19T20:44:29.147Z,25.69
2018-08-19T20:47:32.552Z,25.59
2018-08-19T20:50:36.388Z,25.45
2018-08-19T20:53:39.562Z,25.32
2018-08-19T20:56:42.969Z,25.22
2018-08-19T20:59:46.301Z,25.05
2018-08-19T21:02:49.587Z,24.90
2018-08-19T21:05:54.783Z,24.79
2018-08-19T21:08:59.048Z,24.79
2018-08-19T21:12:02.833Z,24.77
2018-08-19T21:15:06.349Z,24.75
2018-08-19T21:18:09.636Z,24.74
2018-08-19T21:21:14.123Z,24.70
2018-08-19T21:24:17.902Z,24.59
2018-08-19T21:27:21.954Z,24.49
2018-08-19T21:30:25.818Z,24.44
2018-08-19T21:33:30.196Z,24.41
2018-08-19T21:36:33.590Z,24.31
2018-08-19T21:39:38.190Z,24.20
2018-08-19T21:42:49.555Z,24.14
2018-08-19T21:45:52.908Z,23.97
2018-08-19T21:48:56.582Z,23.99
2018-08-19T21:52:00.538Z,23.87
2018-08-19T21:55:04.038Z,23.84
2018-08-19T21:58:07.793Z,23.82
2018-08-19T22:01:16.640Z,23.73
2018-08-19T22:04:21.265Z,23.62
2018-08-19T22:07:25.011Z,23.48
2018-08-19T22:10:28.498Z,23.42
2018-08-19T22:13:32.004Z,23.31
2018-08-19T22:16:35.579Z,23.31
2018-08-19T22:19:39.597Z,23.26
2018-08-19T22:22:43.993Z,23.23
2018-08-19T22:25:47.580Z,23.21
2018-08-19T22:29:08.511Z,23.15
2018-08-19T22:32:12.041Z,23.12
2018-08-19T22:35:15.515Z,23.05
2018-08-19T22:38:22.931Z,22.99
2018-08-19T22:41:31.019Z,22.88
2018-08-19T22:44:34.288Z,22.95
2018-08-19T22:47:37.582Z,22.95
2018-08-19T22:50:40.869Z,22.93
2018-08-19T22:53:44.076Z,22.85
2018-08-19T22:56:48.648Z,22.77
2018-08-19T22:59:52.195Z,22.76
2018-08-19T23:02:56.507Z,22.67
2018-08-19T23:06:00.719Z,22.67
2018-08-19T23:09:04.945Z,22.51
2018-08-19T23:12:08.183Z,22.44
2018-08-19T23:15:23.149Z,22.38
2018-08-19T23:18:27.661Z,22.41
2018-08-19T23:21:30.955Z,22.41
2018-08-19T23:24:34.399Z,22.39
2018-08-19T23:27:37.700Z,22.33
2018-08-19T23:30:41.113Z,22.22
2018-08-19T23:33:45.398Z,22.22
2018-08-19T23:36:48.958Z,22.21
2018-08-19T23:39:52.609Z,22.13
2018-08-19T23:42:56.137Z,22.09
2018-08-19T23:46:00.828Z,22.03
2018-08-19T23:49:04.666Z,21.86
2018-08-19T23:52:08.036Z,21.83
2018-08-19T23:55:11.573Z,21.86
2018-08-19T23:58:14.897Z,21.79
